Time;durP1;ratioP1;P1;durP2;ratioP2;P2;SDS_P1;SDS_P2;PMS_P1;PMS_P2;Temp;Humidity;BMP_temperature;BMP_pressure;BME280_temperature;BME280_humidity;BME280_pressure;Samples;Min_cycle;Max_cycle;Signal;HPM_P1;HPM_P2
2022/04/10 00:01:07;;;;;;;;;27.33;27.33;;;;;9.97;100.00;101365.78;5005893;28;47906;-84
2022/04/10 00:03:32;;;;;;;;;35.00;34.33;;;;;9.84;100.00;101350.38;5006311;28;45481;-83
2022/04/10 00:06:01;;;;;;;;;35.00;30.67;;;;;9.95;100.00;101355.09;5006026;28;44762;-82
2022/04/10 00:08:26;;;;;;;;;32.67;31.00;;;;;9.72;100.00;101357.16;5006797;28;45469;-83
2022/04/10 00:10:51;;;;;;;;;20.67;20.67;;;;;9.73;100.00;101358.94;5005702;28;47806;-83
2022/04/10 00:13:17;;;;;;;;;30.33;30.00;;;;;9.67;100.00;101358.78;5007335;28;44801;-83
2022/04/10 00:15:54;;;;;;;;;34.67;31.33;;;;;9.76;100.00;101352.84;5008507;28;45829;-82
2022/04/10 00:18:19;;;;;;;;;32.00;28.00;;;;;9.53;100.00;101338.91;5008233;28;45464;-82
2022/04/10 00:20:46;;;;;;;;;34.00;30.33;;;;;9.51;100.00;101343.28;5007362;28;45539;-82
2022/04/10 00:23:11;;;;;;;;;27.67;27.00;;;;;9.47;100.00;101333.44;5008079;28;45394;-82
2022/04/10 00:25:40;;;;;;;;;27.33;25.00;;;;;9.52;100.00;101348.63;5005412;28;44857;-83
2022/04/10 00:28:09;;;;;;;;;29.00;27.33;;;;;9.60;100.00;101332.94;5007879;28;45293;-82
2022/04/10 00:30:34;;;;;;;;;28.00;26.33;;;;;9.45;100.00;101340.44;5008128;28;45889;-84
2022/04/10 00:33:00;;;;;;;;;27.00;25.67;;;;;9.41;100.00;101337.72;5008041;28;45013;-83
2022/04/10 00:35:26;;;;;;;;;25.00;25.00;;;;;9.33;100.00;101341.91;5009422;28;45042;-83
2022/04/10 00:37:51;;;;;;;;;24.33;24.33;;;;;9.35;100.00;101334.91;5009010;28;45445;-83
2022/04/10 00:40:17;;;;;;;;;21.00;20.00;;;;;9.30;100.00;101331.19;5006254;28;47648;-82
2022/04/10 00:42:48;;;;;;;;;24.00;23.33;;;;;9.51;100.00;101351.25;5006253;28;44737;-83
2022/04/10 00:45:14;;;;;;;;;28.00;25.33;;;;;9.25;100.00;101340.81;5015953;28;45463;-83
2022/04/10 00:47:39;;;;;;;;;25.00;24.33;;;;;9.27;100.00;101341.75;5008287;28;45796;-82
2022/04/10 00:50:19;;;;;;;;;24.00;24.00;;;;;9.38;100.00;101339.38;5025540;28;47200;-83
2022/04/10 00:52:47;;;;;;;;;25.33;25.00;;;;;9.20;100.00;101329.13;5025773;28;45327;-83
2022/04/10 00:55:14;;;;;;;;;22.00;20.00;;;;;9.22;100.00;101343.34;5025793;28;44975;-83
2022/04/10 00:57:39;;;;;;;;;26.67;25.00;;;;;9.15;100.00;101330.75;5027388;28;45469;-83
2022/04/10 01:00:09;;;;;;;;;24.67;24.00;;;;;9.32;100.00;101339.22;5028471;28;45471;-83
2022/04/10 01:02:36;;;;;;;;;15.25;15.00;;;;;9.08;100.00;101323.47;5043788;28;45525;-83
2022/04/10 01:05:04;;;;;;;;;28.67;25.33;;;;;9.25;100.00;101343.47;5029517;28;45578;-82
2022/04/10 01:07:37;;;;;;;;;25.33;24.00;;;;;9.11;100.00;101297.00;5047272;28;45753;-83
2022/04/10 01:10:05;;;;;;;;;19.67;19.67;;;;;9.26;100.00;101347.00;5029495;28;47896;-84
2022/04/10 01:12:34;;;;;;;;;24.00;24.00;;;;;9.04;100.00;101313.63;5029735;28;45957;-84
2022/04/10 01:15:01;;;;;;;;;25.33;22.33;;;;;9.04;100.00;101324.25;5046784;28;45444;-83
2022/04/10 01:17:29;;;;;;;;;27.00;22.67;;;;;9.21;100.00;101347.78;5047475;28;45870;-84
2022/04/10 01:19:57;;;;;;;;;22.33;22.33;;;;;9.00;100.00;101326.78;5029600;28;45594;-82
2022/04/10 01:22:30;;;;;;;;;24.33;21.00;;;;;9.18;100.00;101344.13;5029411;28;44891;-83
2022/04/10 01:24:56;;;;;;;;;21.33;20.33;;;;;8.99;100.00;101343.56;5048695;28;45453;-84
2022/04/10 01:27:22;;;;;;;;;17.00;15.67;;;;;8.90;100.00;101329.13;5048526;28;45413;-84
2022/04/10 01:29:47;;;;;;;;;22.67;21.00;;;;;8.96;100.00;101348.78;5029391;28;47615;-83
2022/04/10 01:32:13;;;;;;;;;23.00;21.67;;;;;8.95;100.00;101343.44;5049103;28;45343;-84
2022/04/10 01:34:40;;;;;;;;;19.00;19.00;;;;;8.99;100.00;101332.97;5048880;28;45246;-83
2022/04/10 01:37:07;;;;;;;;;21.67;21.67;;;;;8.87;100.00;101337.91;5048443;28;45522;-83
2022/04/10 01:39:34;;;;;;;;;21.67;20.67;;;;;8.86;100.00;101336.09;5045802;28;45542;-83
2022/04/10 01:41:59;;;;;;;;;21.33;20.00;;;;;8.87;100.00;101337.91;5027761;28;45387;-84
2022/04/10 01:44:25;;;;;;;;;20.00;20.00;;;;;8.83;100.00;101341.31;5045873;28;45432;-82
2022/04/10 01:46:50;;;;;;;;;17.33;14.67;;;;;8.84;100.00;101334.25;5027269;28;45447;-83
2022/04/10 01:49:16;;;;;;;;;19.67;15.00;;;;;8.78;100.00;101333.19;5046185;28;47296;-83
2022/04/10 01:55:05;;;;;;;;;14.00;12.00;;;;;8.76;100.00;101326.03;5046570;28;45378;-82
2022/04/10 01:57:30;;;;;;;;;15.33;15.33;;;;;8.78;100.00;101334.94;5047134;28;45433;-84
2022/04/10 01:59:56;;;;;;;;;19.33;16.00;;;;;8.77;100.00;101327.88;5047682;28;45493;-82
2022/04/10 02:02:25;;;;;;;;;11.33;11.33;;;;;8.86;100.00;101321.94;5048625;28;45450;-83
2022/04/10 02:04:51;;;;;;;;;18.00;15.67;;;;;8.73;100.00;101331.28;5028403;28;45410;-83
2022/04/10 02:07:24;;;;;;;;;15.67;14.33;;;;;8.73;100.00;101334.81;5030067;28;45802;-83
2022/04/10 02:09:53;;;;;;;;;18.00;17.67;;;;;8.87;100.00;101323.75;5013352;28;47057;-83
2022/04/10 02:12:18;;;;;;;;;13.33;13.33;;;;;8.67;100.00;101325.78;5047032;28;45857;-83
2022/04/10 02:14:44;;;;;;;;;14.33;12.00;;;;;8.68;100.00;101327.56;5028611;28;45441;-82
2022/04/10 02:17:09;;;;;;;;;16.67;14.67;;;;;8.62;100.00;101312.34;5048341;28;45383;-85
2022/04/10 02:19:36;;;;;;;;;18.33;16.67;;;;;8.74;100.00;101310.09;5047851;28;45469;-83
2022/04/10 02:22:01;;;;;;;;;11.00;10.67;;;;;8.67;100.00;101320.47;5048505;28;45455;-83
2022/04/10 02:24:27;;;;;;;;;13.33;13.33;;;;;8.69;100.00;101313.47;5030737;28;45393;-83
2022/04/10 02:26:52;;;;;;;;;16.00;16.00;;;;;8.71;100.00;101328.56;5044864;28;46006;-83
2022/04/10 02:29:18;;;;;;;;;17.00;14.67;;;;;8.68;100.00;101333.75;5046153;28;45124;-85
2022/04/10 02:31:44;;;;;;;;;15.67;14.67;;;;;8.77;100.00;101314.59;5027918;28;45336;-82
2022/04/10 02:34:10;;;;;;;;;14.33;11.67;;;;;8.65;100.00;101330.13;5028403;28;44891;-84
2022/04/10 02:36:35;;;;;;;;;12.00;12.00;;;;;8.65;100.00;101319.53;5046841;28;45350;-83
2022/04/10 02:39:01;;;;;;;;;16.00;12.00;;;;;8.59;100.00;101317.59;5046049;28;45160;-82
2022/04/10 02:41:26;;;;;;;;;14.00;14.00;;;;;8.62;100.00;101330.91;5047428;28;44884;-84
2022/04/10 02:43:52;;;;;;;;;11.00;11.00;;;;;8.59;100.00;101330.84;5028261;28;45532;-83
2022/04/10 02:46:17;;;;;;;;;15.00;12.67;;;;;8.52;100.00;101319.13;5029167;28;45744;-83
2022/04/10 02:48:43;;;;;;;;;12.00;12.00;;;;;8.47;100.00;101323.38;5045570;28;45514;-83
2022/04/10 02:51:08;;;;;;;;;15.33;12.67;;;;;8.54;100.00;101337.72;5009661;28;45834;-83
2022/04/10 02:53:34;;;;;;;;;14.00;13.33;;;;;8.46;100.00;101326.88;5007238;28;45434;-83
2022/04/10 02:56:01;;;;;;;;;13.33;12.00;;;;;8.58;100.00;101327.28;5025357;28;45856;-85
2022/04/10 02:58:26;;;;;;;;;15.00;13.33;;;;;8.54;100.00;101340.38;5025440;28;46826;-85
2022/04/10 03:00:52;;;;;;;;;21.33;17.33;;;;;8.57;100.00;101330.78;5008600;28;44783;-82
2022/04/10 03:03:18;;;;;;;;;15.33;15.33;;;;;8.51;100.00;101335.00;5009713;28;45623;-83
2022/04/10 03:05:43;;;;;;;;;18.00;18.00;;;;;8.42;100.00;101324.97;5006965;28;45637;-82
2022/04/10 03:08:10;;;;;;;;;15.67;15.67;;;;;8.52;100.00;101329.72;5009383;28;45371;-82
2022/04/10 03:10:35;;;;;;;;;17.00;15.33;;;;;8.40;100.00;101335.53;5009381;28;45461;-82
2022/04/10 03:13:01;;;;;;;;;15.00;14.67;;;;;8.35;100.00;101328.25;5010490;28;45401;-82
2022/04/10 03:15:26;;;;;;;;;14.67;14.67;;;;;8.35;100.00;101339.75;5011601;28;44862;-83
2022/04/10 03:17:51;;;;;;;;;16.67;13.67;;;;;8.34;100.00;101339.69;5010021;28;45770;-82
2022/04/10 03:20:23;;;;;;;;;17.33;15.00;;;;;8.49;100.00;101337.59;5009950;28;45608;-82
2022/04/10 03:22:48;;;;;;;;;15.00;15.00;;;;;8.31;100.00;101342.28;5010281;28;44915;-83
2022/04/10 03:25:14;;;;;;;;;10.00;9.00;;;;;8.32;100.00;101333.44;5007747;28;45383;-82
2022/04/10 03:27:39;;;;;;;;;11.00;10.00;;;;;8.32;100.00;101352.00;5007981;28;45382;-83
2022/04/10 03:30:05;;;;;;;;;11.00;11.00;;;;;8.30;100.00;101349.31;5008933;28;45393;-82
2022/04/10 03:32:31;;;;;;;;;12.67;11.67;;;;;8.26;100.00;101333.25;5009550;28;45357;-84
2022/04/10 03:34:56;;;;;;;;;10.00;9.00;;;;;8.28;100.00;101344.81;5009850;28;45427;-83
2022/04/10 03:37:22;;;;;;;;;10.00;10.00;;;;;8.23;100.00;101344.66;5008517;28;45526;-83
2022/04/10 03:39:47;;;;;;;;;9.33;9.33;;;;;8.15;100.00;101333.81;5009970;28;45423;-82
2022/04/10 03:42:12;;;;;;;;;11.67;10.33;;;;;8.21;100.00;101339.28;5008490;28;45567;-81
2022/04/10 03:44:38;;;;;;;;;17.33;13.33;;;;;8.17;100.00;101340.03;5007890;28;45392;-84
2022/04/10 03:47:04;;;;;;;;;13.00;12.67;;;;;8.20;100.00;101345.47;5008611;28;46230;-82
2022/04/10 03:49:29;;;;;;;;;14.33;11.33;;;;;8.08;100.00;101339.75;5007954;28;44975;-83
2022/04/10 03:51:55;;;;;;;;;15.33;14.00;;;;;8.08;100.00;101350.34;4991951;28;45393;-82
2022/04/10 03:54:21;;;;;;;;;13.67;13.67;;;;;8.11;100.00;101342.50;5009933;28;44734;-83
2022/04/10 03:56:47;;;;;;;;;14.00;12.33;;;;;7.98;100.00;101351.78;5009422;28;45414;-83
2022/04/10 03:59:12;;;;;;;;;14.00;14.00;;;;;7.90;100.00;101340.03;5008097;28;45364;-83
2022/04/10 04:01:37;;;;;;;;;16.00;14.33;;;;;7.95;100.00;101354.31;5008283;28;45429;-83
2022/04/10 04:04:08;;;;;;;;;14.00;12.33;;;;;7.91;100.00;101344.47;5006222;28;45331;-82
2022/04/10 04:06:33;;;;;;;;;10.67;10.67;;;;;7.80;100.00;101329.97;5004391;28;45534;-81
2022/04/10 04:08:59;;;;;;;;;16.67;15.00;;;;;7.90;100.00;101344.44;5004809;28;45513;-83
2022/04/10 04:11:24;;;;;;;;;14.67;13.00;;;;;7.82;100.00;101337.09;5006252;28;44933;-82
2022/04/10 04:13:50;;;;;;;;;11.00;11.00;;;;;7.76;100.00;101325.41;5006728;28;45442;-83
2022/04/10 04:16:15;;;;;;;;;10.67;10.67;;;;;7.55;100.00;101293.78;5007642;28;45462;-84
2022/04/10 04:18:41;;;;;;;;;14.00;12.33;;;;;7.73;100.00;101331.47;5007480;28;45415;-83
2022/04/10 04:21:07;;;;;;;;;14.00;13.33;;;;;7.69;100.00;101324.28;5009830;28;45459;-82
2022/04/10 04:23:35;;;;;;;;;11.00;11.00;;;;;7.81;100.00;101324.69;5009058;28;45524;-84
2022/04/10 04:26:00;;;;;;;;;12.67;10.67;;;;;7.69;100.00;101334.88;5008993;28;47133;-84
2022/04/10 04:28:26;;;;;;;;;12.00;12.00;;;;;7.76;100.00;101347.50;5008683;28;44741;-84
2022/04/10 04:30:54;;;;;;;;;13.67;13.67;;;;;7.91;100.00;101351.50;5010313;28;45438;-83
2022/04/10 04:33:20;;;;;;;;;11.67;11.67;;;;;7.69;100.00;101340.16;5008786;28;45485;-83
2022/04/10 04:35:45;;;;;;;;;14.00;13.00;;;;;7.72;100.00;101350.88;5008634;28;46843;-82
2022/04/10 04:38:11;;;;;;;;;21.00;16.67;;;;;7.72;100.00;101350.88;5007252;28;45078;-84
2022/04/10 04:40:36;;;;;;;;;11.67;11.00;;;;;7.76;100.00;101357.19;5008482;28;45522;-82
2022/04/10 04:43:02;;;;;;;;;14.00;11.67;;;;;7.73;100.00;101354.41;5008953;28;45477;-83
2022/04/10 04:45:30;;;;;;;;;11.00;11.00;;;;;7.87;100.00;101365.50;5026650;28;47779;-85
2022/04/10 04:47:56;;;;;;;;;11.00;11.00;;;;;7.71;100.00;101372.88;5026268;28;45347;-82
2022/04/10 04:50:55;;;;;;;;;12.67;11.67;;;;;7.92;100.00;101375.41;5026896;28;45378;-83
2022/04/10 04:53:26;;;;;;;;;10.00;10.00;;;;;7.80;100.00;101375.88;5025466;28;45510;-84
2022/04/10 04:55:51;;;;;;;;;11.00;10.00;;;;;7.66;100.00;101377.13;5024804;28;46962;-82
2022/04/10 04:58:17;;;;;;;;;12.00;11.00;;;;;7.65;100.00;101385.91;5022961;28;44924;-83
2022/04/10 05:00:43;;;;;;;;;10.33;10.33;;;;;7.47;100.00;101348.19;5024770;28;45741;-82
2022/04/10 05:03:08;;;;;;;;;11.33;10.00;;;;;7.53;100.00;101381.06;5025528;28;44797;-82
2022/04/10 05:05:33;;;;;;;;;12.33;10.67;;;;;7.58;100.00;101383.91;5028794;28;47162;-84
2022/04/10 05:07:59;;;;;;;;;11.33;11.33;;;;;7.54;100.00;101397.88;5029962;28;45524;-83
2022/04/10 05:10:26;;;;;;;;;12.00;12.00;;;;;7.51;100.00;101384.50;5048741;28;45554;-83
2022/04/10 05:12:54;;;;;;;;;14.00;10.33;;;;;7.61;100.00;101384.00;5030583;28;45482;-83
2022/04/10 05:15:20;;;;;;;;;8.67;8.67;;;;;7.40;100.00;101371.78;5029245;28;46814;-83
2022/04/10 05:17:46;;;;;;;;;12.33;11.00;;;;;7.59;100.00;101386.59;5047953;28;45433;-83
2022/04/10 05:20:12;;;;;;;;;11.00;11.00;;;;;7.43;100.00;101378.91;5013286;28;45485;-84
2022/04/10 05:22:39;;;;;;;;;13.33;11.67;;;;;7.43;100.00;101381.56;5047481;28;45355;-82
2022/04/10 05:25:05;;;;;;;;;13.67;13.67;;;;;7.39;100.00;101374.34;5047856;28;45431;-83
2022/04/10 05:27:30;;;;;;;;;11.67;10.33;;;;;7.45;100.00;101373.69;5047754;28;44853;-84
2022/04/10 05:33:18;;;;;;;;;11.00;10.00;;;;;7.54;100.00;101387.28;5047216;28;45018;-83
2022/04/10 05:35:43;;;;;;;;;11.00;11.00;;;;;7.56;100.00;101396.19;5028140;28;47160;-84
2022/04/10 05:38:10;;;;;;;;;12.33;12.33;;;;;7.73;100.00;101405.59;5028977;28;45455;-83
2022/04/10 05:40:35;;;;;;;;;12.67;12.33;;;;;7.60;100.00;101406.03;5029802;28;45852;-83
2022/04/10 05:43:57;;;;;;;;;13.67;13.67;;;;;7.96;100.00;101419.69;5029734;28;45485;-82
2022/04/10 05:46:25;;;;;;;;;11.67;10.00;;;;;7.81;100.00;101416.47;5046057;28;46843;-83
2022/04/10 05:48:51;;;;;;;;;14.67;14.67;;;;;7.90;100.00;101419.47;5047993;28;45580;-84
2022/04/10 05:51:17;;;;;;;;;13.33;12.33;;;;;7.96;100.00;101422.34;5031068;28;44862;-82
2022/04/10 05:53:42;;;;;;;;;13.00;13.00;;;;;8.11;100.00;101429.03;5031424;28;45464;-83
2022/04/10 05:56:07;;;;;;;;;10.00;9.33;;;;;8.17;100.00;101422.19;5030840;28;47106;-83
2022/04/10 05:58:33;;;;;;;;;13.33;13.33;;;;;8.28;100.00;101421.66;5030103;28;45743;-82
2022/04/10 06:01:05;;;;;;;;;13.67;13.67;;;;;8.56;100.00;101429.75;5031454;28;45450;-83
2022/04/10 06:03:30;;;;;;;;;15.00;15.00;;;;;8.44;100.00;101429.31;5030522;28;44890;-83
2022/04/10 06:05:56;;;;;;;;;13.67;13.67;;;;;8.44;100.00;101417.81;5026391;28;47492;-84
2022/04/10 06:08:21;;;;;;;;;21.33;16.00;;;;;8.54;100.00;101431.44;5025635;28;45335;-82
2022/04/10 06:10:48;;;;;;;;;17.33;16.67;;;;;8.66;100.00;101417.66;5029726;28;45207;-83
2022/04/10 06:13:14;;;;;;;;;16.33;16.33;;;;;8.75;100.00;101430.34;5027811;28;45415;-84
2022/04/10 06:15:40;;;;;;;;;15.00;14.00;;;;;8.71;100.00;101433.75;5027937;28;45403;-82
2022/04/10 06:18:07;;;;;;;;;17.33;14.67;;;;;8.80;100.00;101439.34;5028202;28;45356;-82
2022/04/10 06:20:33;;;;;;;;;19.00;15.67;;;;;8.86;100.00;101439.53;5026893;28;44904;-82
2022/04/10 06:22:58;;;;;;;;;16.33;16.33;;;;;8.96;100.00;101441.63;5025191;28;44833;-83
2022/04/10 06:25:24;;;;;;;;;15.33;13.67;;;;;9.09;100.00;101436.69;5026673;28;47300;-82
2022/04/10 06:31:11;;;;;;;;;16.67;16.67;;;;;9.30;100.00;101426.75;5028296;28;45343;-83
2022/04/10 06:33:37;;;;;;;;;14.67;14.67;;;;;9.32;100.00;101413.53;5025858;28;45263;-84
2022/04/10 06:36:03;;;;;;;;;19.33;17.67;;;;;9.46;100.00;101427.22;5024491;28;47271;-83
2022/04/10 06:38:30;;;;;;;;;16.00;14.33;;;;;9.55;100.00;101428.41;5022380;28;45492;-84
2022/04/10 06:44:17;;;;;;;;;15.33;13.33;;;;;9.69;100.00;101425.22;5027825;28;45394;-83
2022/04/10 06:46:43;;;;;;;;;18.67;18.67;;;;;9.75;100.00;101426.28;5027448;28;45954;-84
2022/04/10 06:49:18;;;;;;;;;23.33;17.67;;;;;9.79;100.00;101427.28;5018989;28;46092;-83
2022/04/10 06:51:43;;;;;;;;;15.00;15.00;;;;;9.85;100.00;101434.53;5006322;28;44810;-82
2022/04/10 06:54:24;;;;;;;;;24.00;19.00;;;;;10.14;100.00;101436.25;5006664;28;45504;-81
2022/04/10 06:56:49;;;;;;;;;17.67;16.00;;;;;10.02;100.00;101430.59;5006266;28;46163;-83
2022/04/10 06:59:15;;;;;;;;;19.67;16.33;;;;;10.17;100.00;101433.66;5005128;28;45470;-84
2022/04/10 07:01:40;;;;;;;;;17.33;16.00;;;;;10.18;100.00;101410.66;4987707;28;45434;-84
2022/04/10 07:04:06;;;;;;;;;21.00;18.00;;;;;10.36;100.00;101429.78;5004448;28;45408;-83
2022/04/10 07:06:31;;;;;;;;;16.00;15.00;;;;;10.50;100.00;101434.53;5013491;28;45525;-84
2022/04/10 07:08:57;;;;;;;;;19.00;17.00;;;;;10.63;99.66;101430.44;5025616;28;45759;-84
2022/04/10 07:11:23;;;;;;;;;23.00;22.00;;;;;10.73;99.97;101428.03;5026431;28;45494;-83
2022/04/10 07:13:50;;;;;;;;;22.67;21.33;;;;;10.85;99.91;101422.13;5026868;28;45539;-84
2022/04/10 07:16:17;;;;;;;;;20.00;16.00;;;;;11.10;100.00;101417.34;5007874;28;47115;-84
2022/04/10 07:18:42;;;;;;;;;18.33;16.67;;;;;11.14;99.59;101414.78;5007316;28;44995;-82
2022/04/10 07:21:09;;;;;;;;;23.33;21.67;;;;;11.31;99.08;101424.91;5007800;28;45411;-83
2022/04/10 07:23:46;;;;;;;;;19.00;18.67;;;;;11.41;99.09;101418.91;5025532;28;45436;-82
2022/04/10 07:26:15;;;;;;;;;30.00;23.67;;;;;11.64;99.40;101402.53;5006862;28;48516;-83
2022/04/10 07:28:41;;;;;;;;;23.33;22.00;;;;;11.66;99.08;101420.34;5025048;28;45516;-83
2022/04/10 07:31:08;;;;;;;;;23.67;23.00;;;;;11.73;99.07;101416.91;5024780;28;45518;-84
2022/04/10 07:33:36;;;;;;;;;28.33;27.00;;;;;11.96;98.47;101413.88;5009066;28;45474;-83
2022/04/10 07:36:04;;;;;;;;;27.33;25.67;;;;;11.89;98.30;101403.94;4992758;28;48127;-83
2022/04/10 07:38:35;;;;;;;;;31.67;26.00;;;;;12.05;97.52;101416.69;5025413;28;45476;-84
2022/04/10 07:41:05;;;;;;;;;27.67;26.33;;;;;12.26;97.38;101412.63;5007504;28;44903;-83
2022/04/10 07:43:31;;;;;;;;;24.33;23.00;;;;;12.23;97.71;101412.59;5009021;28;45966;-83
2022/04/10 07:48:42;;;;;;;;;32.67;30.00;;;;;12.38;96.72;101419.09;5026701;28;45359;-84
2022/04/10 07:51:08;;;;;;;;;25.33;25.33;;;;;12.50;97.04;101425.50;5009609;28;45400;-83
2022/04/10 07:53:34;;;;;;;;;21.33;20.33;;;;;12.52;91.29;101419.34;5028974;28;45352;-83
2022/04/10 07:56:00;;;;;;;;;24.00;22.33;;;;;12.44;95.60;101407.59;5030764;28;46901;-83
2022/04/10 08:01:47;;;;;;;;;25.33;21.00;;;;;12.63;95.81;101410.59;5031710;28;45273;-84
2022/04/10 08:04:15;;;;;;;;;24.00;22.67;;;;;12.84;88.41;101423.38;5012624;28;44916;-83
2022/04/10 08:06:44;;;;;;;;;24.67;20.00;;;;;12.88;93.70;101418.09;5007743;28;47066;-83
2022/04/10 08:09:16;;;;;;;;;24.00;24.00;;;;;12.66;86.55;101403.53;5009170;28;45621;-83
2022/04/10 08:11:42;;;;;;;;;23.33;21.33;;;;;12.63;86.19;101418.59;5008748;28;45231;-83
2022/04/10 08:14:07;;;;;;;;;25.33;25.00;;;;;12.66;87.79;101423.97;5010522;28;45478;-83
2022/04/10 08:16:33;;;;;;;;;23.67;23.33;;;;;12.57;88.63;101396.28;5010490;28;46319;-82
2022/04/10 08:18:58;;;;;;;;;24.00;21.67;;;;;12.79;87.15;101410.88;5008061;28;44887;-83
2022/04/10 08:21:26;;;;;;;;;27.00;25.00;;;;;12.79;85.39;101415.31;5006779;28;45590;-83
2022/04/10 08:23:52;;;;;;;;;26.67;23.00;;;;;12.86;91.61;101416.28;5008542;28;44834;-83
2022/04/10 08:29:43;;;;;;;;;21.67;20.33;;;;;12.99;80.52;101419.19;5009767;28;45513;-83
2022/04/10 08:32:08;;;;;;;;;23.67;23.67;;;;;12.91;85.12;101417.28;5008705;28;45421;-84
2022/04/10 08:34:34;;;;;;;;;16.33;16.33;;;;;12.84;84.69;101408.25;5009034;28;45468;-82
2022/04/10 08:37:05;;;;;;;;;18.33;17.67;;;;;12.86;89.69;101390.50;5007850;28;47001;-83
2022/04/10 08:39:33;;;;;;;;;17.00;14.67;;;;;13.05;85.49;101414.78;5011308;28;45113;-83
2022/04/10 08:42:06;;;;;;;;;21.33;20.67;;;;;13.27;91.31;101407.97;5011772;28;45458;-83
2022/04/10 08:44:33;;;;;;;;;24.33;19.33;;;;;13.33;91.32;101424.13;5008104;28;45287;-83
2022/04/10 08:47:00;;;;;;;;;15.33;14.00;;;;;13.55;88.76;101417.28;5007450;28;46950;-82
2022/04/10 08:49:27;;;;;;;;;17.67;15.67;;;;;13.65;85.29;101424.53;5007350;28;45368;-83
2022/04/10 08:51:57;;;;;;;;;9.67;8.33;;;;;13.72;73.35;101425.53;5007095;28;45574;-83
2022/04/10 08:54:24;;;;;;;;;6.67;6.67;;;;;13.55;66.50;101415.53;5009518;28;45335;-85
2022/04/10 08:56:52;;;;;;;;;6.67;6.33;;;;;13.37;68.46;101402.84;5006926;28;47997;-83
2022/04/10 08:59:24;;;;;;;;;8.33;8.33;;;;;13.63;82.83;101418.28;5009801;28;45486;-84
2022/04/10 09:01:53;;;;;;;;;8.33;8.33;;;;;13.77;83.62;101415.78;5006677;28;45414;-84
2022/04/10 09:04:20;;;;;;;;;10.67;8.00;;;;;13.82;83.74;101423.88;5007311;28;45495;-83
2022/04/10 09:07:09;;;;;;;;;7.67;5.67;;;;;13.99;77.26;101420.50;5006997;28;46808;-83
2022/04/10 09:09:37;;;;;;;;;8.00;7.67;;;;;13.91;78.66;101415.94;5007876;28;45393;-84
2022/04/10 09:12:07;;;;;;;;;9.00;6.67;;;;;13.99;78.38;101416.94;5008910;28;45810;-84
2022/04/10 09:14:37;;;;;;;;;7.67;6.33;;;;;14.10;68.85;101414.34;5007449;28;45504;-82
2022/04/10 09:17:20;;;;;;;;;8.00;6.33;;;;;14.14;71.39;101426.91;5007236;28;48184;-83
2022/04/10 09:19:50;;;;;;;;;7.67;5.67;;;;;14.11;65.80;101419.72;5006626;28;45374;-84
2022/04/10 09:22:21;;;;;;;;;7.00;5.00;;;;;13.92;62.90;101399.03;5007898;28;45443;-83
2022/04/10 09:25:09;;;;;;;;;6.33;4.67;;;;;13.97;67.74;101424.03;5006453;28;45410;-83
2022/04/10 09:27:44;;;;;;;;;9.33;9.33;;;;;14.00;67.08;101424.97;5006788;28;46481;-84
2022/04/10 09:30:13;;;;;;;;;8.67;8.33;;;;;14.06;68.12;101418.81;5006023;28;45469;-83
2022/04/10 09:32:41;;;;;;;;;8.33;7.33;;;;;13.89;54.43;101423.06;5008750;28;45348;-84
2022/04/10 09:35:09;;;;;;;;;10.00;7.67;;;;;13.86;65.14;101415.00;5009423;28;45673;-83
2022/04/10 09:37:59;;;;;;;;;5.00;5.00;;;;;13.99;65.43;101416.94;5007783;28;45953;-81
2022/04/10 09:40:35;;;;;;;;;8.00;6.33;;;;;13.93;58.35;101409.72;5009250;28;45066;-83
2022/04/10 09:43:05;;;;;;;;;10.67;7.33;;;;;13.76;55.47;101411.34;5007421;28;45756;-83
2022/04/10 09:45:43;;;;;;;;;9.67;9.00;;;;;13.93;54.64;101424.88;5008594;28;45516;-82
2022/04/10 09:48:29;;;;;;;;;9.33;7.67;;;;;14.03;68.89;101424.09;5007543;28;45233;-84
2022/04/10 09:51:03;;;;;;;;;5.67;5.67;;;;;14.13;58.05;101414.41;5006434;28;45734;-83
2022/04/10 09:53:31;;;;;;;;;8.00;7.67;;;;;14.14;65.46;101429.59;5006639;28;45424;-85
2022/04/10 09:56:00;;;;;;;;;7.00;7.00;;;;;14.12;55.54;101417.97;5008182;28;45777;-83
2022/04/10 09:58:26;;;;;;;;;7.67;5.67;;;;;14.04;61.06;101408.94;5009450;28;45535;-83
2022/04/10 10:00:54;;;;;;;;;9.33;9.33;;;;;14.00;56.84;101400.00;5008988;28;45531;-83
2022/04/10 10:03:25;;;;;;;;;5.00;5.00;;;;;14.19;58.87;101415.34;5009811;28;45395;-82
2022/04/10 10:05:55;;;;;;;;;9.00;9.00;;;;;14.04;53.79;101422.31;4992878;28;44966;-84
2022/04/10 10:08:22;;;;;;;;;7.00;6.33;;;;;14.10;64.80;101420.63;4991334;28;47069;-83
2022/04/10 10:10:48;;;;;;;;;6.33;5.00;;;;;14.10;65.27;101415.28;4991395;28;45795;-83
2022/04/10 10:13:25;;;;;;;;;;;;;;;;;;;;;
2022/04/10 10:15:51;;;;;;;;;8.00;8.00;;;;;14.03;51.31;101377.75;5009059;28;66818;-83
2022/04/10 10:18:18;;;;;;;;;8.67;8.00;;;;;14.12;54.55;101402.81;5008990;28;45597;-84
2022/04/10 10:20:44;;;;;;;;;4.00;4.00;;;;;14.07;60.85;101404.53;5007842;28;45396;-84
2022/04/10 10:23:14;;;;;;;;;8.00;8.00;;;;;13.87;48.10;101357.97;5008815;28;45241;-85
2022/04/10 10:25:53;;;;;;;;;5.00;5.00;;;;;14.18;62.92;101397.53;4991099;28;44885;-83
2022/04/10 10:28:55;;;;;;;;;9.00;9.00;;;;;14.36;59.88;101393.19;4989922;28;46980;-83
2022/04/10 10:31:46;;;;;;;;;7.00;7.00;;;;;14.44;58.48;101386.16;4990250;28;44849;-83
2022/04/10 10:34:14;;;;;;;;;8.33;8.00;;;;;14.28;63.72;101374.44;4990131;28;45792;-83
2022/04/10 10:36:40;;;;;;;;;8.33;7.33;;;;;14.44;66.88;101383.50;5001464;28;45458;-82
2022/04/10 10:39:08;;;;;;;;;7.67;6.33;;;;;14.65;63.31;101376.56;5027206;28;45323;-83
2022/04/10 10:41:36;;;;;;;;;7.67;7.00;;;;;14.64;66.32;101372.94;5028690;28;45368;-83
2022/04/10 10:44:18;;;;;;;;;7.00;5.00;;;;;14.94;66.58;101369.59;5028568;28;44872;-84
2022/04/10 10:47:00;;;;;;;;;7.33;7.33;;;;;15.03;51.69;101375.88;5026269;28;45524;-83
2022/04/10 10:49:29;;;;;;;;;9.00;7.33;;;;;14.91;53.42;101366.91;5029823;28;46484;-85
2022/04/10 10:51:56;;;;;;;;;5.00;5.00;;;;;14.78;50.82;101368.63;5012543;28;45785;-82
2022/04/10 10:54:24;;;;;;;;;7.00;7.00;;;;;14.85;51.52;101363.31;5010313;28;45458;-84
2022/04/10 10:56:50;;;;;;;;;10.00;9.00;;;;;14.65;57.13;101360.50;5010968;28;45800;-84
2022/04/10 10:59:33;;;;;;;;;8.67;8.00;;;;;14.84;60.38;101358.81;5011178;28;46885;-83
2022/04/10 11:02:07;;;;;;;;;7.33;6.00;;;;;14.84;57.23;101351.66;5011177;28;44812;-83
2022/04/10 11:04:41;;;;;;;;;8.67;8.67;;;;;14.83;50.03;101355.25;5010657;28;45435;-84
2022/04/10 11:07:30;;;;;;;;;9.33;6.33;;;;;14.94;59.93;101345.47;5017228;28;44882;-83
2022/04/10 11:10:07;;;;;;;;;6.33;6.33;;;;;14.87;61.74;101345.47;5018929;28;45182;-83
2022/04/10 11:12:51;;;;;;;;;5.00;4.00;;;;;15.07;58.44;101335.75;5028232;28;44896;-84
2022/04/10 11:15:22;;;;;;;;;7.33;5.33;;;;;15.19;63.50;101337.59;5028362;28;44919;-82
2022/04/10 11:17:50;;;;;;;;;5.67;4.33;;;;;15.19;61.30;101332.25;5027255;28;45699;-84
2022/04/10 11:20:21;;;;;;;;;8.00;8.00;;;;;15.38;63.42;101338.56;5008470;28;47434;-83
2022/04/10 11:22:55;;;;;;;;;9.00;8.33;;;;;15.57;63.11;101334.13;5009860;28;45311;-83
2022/04/10 11:25:34;;;;;;;;;9.00;9.00;;;;;15.65;52.26;101321.66;5026335;28;45544;-83
2022/04/10 11:28:04;;;;;;;;;10.67;10.67;;;;;15.64;57.55;101327.91;5028198;28;45383;-83
2022/04/10 11:30:38;;;;;;;;;9.67;9.00;;;;;15.69;62.59;101323.44;5029025;28;46914;-84
2022/04/10 11:33:09;;;;;;;;;10.00;10.00;;;;;15.88;63.18;101321.75;5029431;28;44849;-83
2022/04/10 11:35:40;;;;;;;;;9.33;9.33;;;;;16.02;55.31;101321.78;5028287;28;45414;-84
2022/04/10 11:38:08;;;;;;;;;13.33;10.00;;;;;15.99;60.30;101313.69;5028845;28;44884;-82
2022/04/10 11:40:37;;;;;;;;;9.67;9.67;;;;;16.16;54.39;101289.59;5027349;28;46938;-83
2022/04/10 11:43:08;;;;;;;;;10.67;10.67;;;;;16.17;47.80;101294.91;5044429;28;45312;-84